createdAt,value
2023-02-19T00:01:23.774Z,77.04
2023-02-19T00:03:55.945Z,77.12
2023-02-19T00:06:24.468Z,77.23
2023-02-19T00:08:50.908Z,77.21
2023-02-19T00:11:23.328Z,77.30
2023-02-19T00:13:52.412Z,77.20
2023-02-19T00:16:22.466Z,77.29
2023-02-19T00:18:49.297Z,77.24
2023-02-19T00:21:16.760Z,77.23
2023-02-19T00:23:43.705Z,77.29
2023-02-19T00:26:18.245Z,77.19
2023-02-19T00:28:49.026Z,77.23
2023-02-19T00:31:27.641Z,77.18
2023-02-19T00:33:57.580Z,77.06
2023-02-19T00:36:25.047Z,77.20
2023-02-19T00:38:51.996Z,77.37
2023-02-19T00:41:20.334Z,77.09
2023-02-19T00:43:58.614Z,77.26
2023-02-19T00:46:29.750Z,77.12
2023-02-19T00:48:56.940Z,77.27
2023-02-19T00:51:25.921Z,77.24
2023-02-19T00:53:52.623Z,77.27
2023-02-19T00:56:19.771Z,77.06
2023-02-19T00:58:48.241Z,77.24
2023-02-19T01:01:15.048Z,77.04
2023-02-19T01:03:42.327Z,76.93
2023-02-19T01:06:11.260Z,76.96
2023-02-19T01:08:37.808Z,76.72
2023-02-19T01:11:06.075Z,76.80
2023-02-19T01:13:33.407Z,76.78
2023-02-19T01:16:05.395Z,76.83
2023-02-19T01:18:32.459Z,76.88
2023-02-19T01:20:58.909Z,76.95
2023-02-19T01:23:25.659Z,76.86
2023-02-19T01:25:52.074Z,76.93
2023-02-19T01:28:18.498Z,76.81
2023-02-19T01:30:45.017Z,76.94
2023-02-19T01:33:11.469Z,76.82
2023-02-19T01:35:39.386Z,76.88
2023-02-19T01:38:08.260Z,76.97
2023-02-19T01:40:35.528Z,76.72
2023-02-19T01:43:03.671Z,76.94
2023-02-19T01:45:35.417Z,76.88
2023-02-19T01:48:07.818Z,76.91
2023-02-19T01:50:43.684Z,76.99
2023-02-19T01:53:14.418Z,76.64
2023-02-19T01:55:41.065Z,76.84
2023-02-19T01:58:09.285Z,76.69
2023-02-19T02:00:37.832Z,76.71
2023-02-19T02:03:05.021Z,76.78
2023-02-19T02:05:41.504Z,76.53
2023-02-19T02:08:26.768Z,76.67
2023-02-19T02:10:53.867Z,76.85
2023-02-19T02:13:20.860Z,76.79
2023-02-19T02:16:04.633Z,76.54
2023-02-19T02:18:43.894Z,76.70
2023-02-19T02:21:32.053Z,76.62
2023-02-19T02:24:04.747Z,76.84
2023-02-19T02:27:09.426Z,76.70
2023-02-19T02:29:39.006Z,76.79
2023-02-19T02:32:12.395Z,76.80
2023-02-19T02:34:56.189Z,76.63
2023-02-19T02:37:25.579Z,76.81
2023-02-19T02:39:53.667Z,76.78
2023-02-19T02:42:27.626Z,76.67
2023-02-19T02:45:35.197Z,76.68
2023-02-19T02:48:34.355Z,76.58
2023-02-19T02:51:19.909Z,76.56
2023-02-19T02:54:24.517Z,76.66
2023-02-19T02:56:52.556Z,76.60
2023-02-19T02:59:23.548Z,76.75
2023-02-19T03:02:10.822Z,76.66
2023-02-19T03:05:33.344Z,76.75
2023-02-19T03:08:14.657Z,76.48
2023-02-19T03:10:58.390Z,76.89
2023-02-19T03:13:51.269Z,76.64
2023-02-19T03:16:45.217Z,76.90
2023-02-19T03:19:21.626Z,76.58
2023-02-19T03:21:55.504Z,76.74
2023-02-19T03:24:48.242Z,76.81
2023-02-19T03:27:16.797Z,76.94
2023-02-19T03:29:50.195Z,76.91
2023-02-19T03:32:31.482Z,76.77
2023-02-19T03:35:23.549Z,76.65
2023-02-19T03:38:04.776Z,76.72
2023-02-19T03:40:41.495Z,76.92
2023-02-19T03:43:19.494Z,76.70
2023-02-19T03:46:14.112Z,76.34
2023-02-19T03:48:51.933Z,76.63
2023-02-19T03:51:32.219Z,76.61
2023-02-19T03:54:13.261Z,76.38
2023-02-19T03:56:53.162Z,76.37
2023-02-19T03:59:43.709Z,76.00
2023-02-19T04:02:14.842Z,76.22
2023-02-19T04:04:50.863Z,76.36
2023-02-19T04:07:17.814Z,76.51
2023-02-19T04:09:48.965Z,76.58
2023-02-19T04:12:20.546Z,76.34
2023-02-19T04:15:02.208Z,76.29
2023-02-19T04:17:36.392Z,76.30
2023-02-19T04:20:07.796Z,76.25
2023-02-19T04:22:36.836Z,76.48
2023-02-19T04:25:03.886Z,76.41
2023-02-19T04:27:30.465Z,76.64
2023-02-19T04:29:57.121Z,76.52
2023-02-19T04:32:23.589Z,76.35
2023-02-19T04:34:52.245Z,76.29
2023-02-19T04:37:19.815Z,76.46
2023-02-19T04:39:46.264Z,76.26
2023-02-19T04:42:12.694Z,76.41
2023-02-19T04:44:39.453Z,76.46
2023-02-19T04:47:05.955Z,76.43
2023-02-19T04:49:32.420Z,76.50
2023-02-19T04:51:58.893Z,76.28
2023-02-19T04:54:25.400Z,76.25
2023-02-19T04:56:51.825Z,76.24
2023-02-19T04:59:18.469Z,76.35
2023-02-19T05:01:44.996Z,76.38
2023-02-19T05:04:11.540Z,76.18
2023-02-19T05:06:38.115Z,76.32
2023-02-19T05:09:04.629Z,76.43
2023-02-19T05:11:31.042Z,76.34
2023-02-19T05:13:57.601Z,76.28
2023-02-19T05:16:24.086Z,76.31
2023-02-19T05:18:51.083Z,76.41
2023-02-19T05:21:19.295Z,76.40
2023-02-19T05:23:45.773Z,76.30
2023-02-19T05:26:18.541Z,76.20
2023-02-19T05:28:52.962Z,76.37
2023-02-19T05:31:20.736Z,76.33
2023-02-19T05:33:50.906Z,76.33
2023-02-19T05:36:19.106Z,76.21
2023-02-19T05:38:45.786Z,76.38
2023-02-19T05:41:17.690Z,76.35
2023-02-19T05:43:46.076Z,76.14
2023-02-19T05:46:15.936Z,76.39
2023-02-19T05:48:43.213Z,76.46
2023-02-19T05:51:12.522Z,76.40
2023-02-19T05:53:40.143Z,76.24
2023-02-19T05:56:33.126Z,76.28
2023-02-19T05:59:03.875Z,76.30
2023-02-19T06:01:31.144Z,76.14
2023-02-19T06:03:58.140Z,76.43
2023-02-19T06:06:25.963Z,76.07
2023-02-19T06:08:53.091Z,76.23
2023-02-19T06:11:20.254Z,75.94
2023-02-19T06:13:46.727Z,75.98
2023-02-19T06:16:13.732Z,75.99
2023-02-19T06:18:41.212Z,76.08
2023-02-19T06:21:10.145Z,75.93
2023-02-19T06:23:38.205Z,76.09
2023-02-19T06:26:07.247Z,76.31
2023-02-19T06:28:33.692Z,76.16
2023-02-19T06:31:00.198Z,75.92
2023-02-19T06:33:28.202Z,76.08
2023-02-19T06:35:54.891Z,76.20
2023-02-19T06:38:21.606Z,76.02
2023-02-19T06:40:48.039Z,75.98
2023-02-19T06:43:14.466Z,76.14
2023-02-19T06:45:41.359Z,76.08
2023-02-19T06:48:07.794Z,75.97
2023-02-19T06:50:34.231Z,75.83
2023-02-19T06:53:00.666Z,76.23
2023-02-19T06:55:27.312Z,76.17
2023-02-19T06:57:53.806Z,75.87
2023-02-19T07:00:20.333Z,76.02
2023-02-19T07:02:46.756Z,76.38
2023-02-19T07:05:13.160Z,76.12
2023-02-19T07:07:39.632Z,76.29
2023-02-19T07:10:06.362Z,76.17
2023-02-19T07:12:32.778Z,76.12
2023-02-19T07:14:59.224Z,76.26
2023-02-19T07:17:25.703Z,76.38
2023-02-19T07:19:52.605Z,76.21
2023-02-19T07:22:19.044Z,76.42
2023-02-19T07:24:47.796Z,76.59
2023-02-19T07:27:14.451Z,76.13
2023-02-19T07:29:40.891Z,76.62
2023-02-19T07:32:07.704Z,76.41
2023-02-19T07:34:34.143Z,76.50
2023-02-19T07:37:00.788Z,76.35
2023-02-19T07:39:27.312Z,76.35
2023-02-19T07:41:53.716Z,76.30
2023-02-19T07:44:26.522Z,76.64
2023-02-19T07:46:52.926Z,76.48
2023-02-19T07:49:19.362Z,76.62
2023-02-19T07:51:45.802Z,76.42
2023-02-19T07:54:12.452Z,76.78
2023-02-19T07:56:39.183Z,76.57
2023-02-19T07:59:05.628Z,76.70
2023-02-19T08:01:50.977Z,76.77
2023-02-19T08:04:17.400Z,76.77
2023-02-19T08:06:43.887Z,76.77
2023-02-19T08:09:11.290Z,76.95
2023-02-19T08:11:56.803Z,76.81
2023-02-19T08:14:27.322Z,76.87
2023-02-19T08:16:54.270Z,76.93
2023-02-19T08:19:21.114Z,76.80
2023-02-19T08:21:47.573Z,76.86
2023-02-19T08:24:14.010Z,76.79
2023-02-19T08:26:40.437Z,77.01
2023-02-19T08:29:07.122Z,77.00
2023-02-19T08:31:34.621Z,77.05
2023-02-19T08:34:01.316Z,77.22
2023-02-19T08:36:27.917Z,77.14
2023-02-19T08:38:54.496Z,77.16
2023-02-19T08:41:20.940Z,77.14
2023-02-19T08:43:47.410Z,77.45
2023-02-19T08:46:13.963Z,77.39
2023-02-19T08:48:40.600Z,77.25
2023-02-19T08:51:10.391Z,77.41
2023-02-19T08:53:39.078Z,77.14
2023-02-19T08:56:11.779Z,77.42
2023-02-19T08:58:38.529Z,77.39
2023-02-19T09:01:12.711Z,77.09
2023-02-19T09:03:39.663Z,77.42
2023-02-19T09:06:06.414Z,77.43
2023-02-19T09:08:32.968Z,77.35
2023-02-19T09:11:04.539Z,77.52
2023-02-19T09:13:31.058Z,77.47
2023-02-19T09:15:57.809Z,77.44
2023-02-19T09:18:25.751Z,77.61
2023-02-19T09:20:52.670Z,77.58
2023-02-19T09:23:19.132Z,77.35
2023-02-19T09:25:45.641Z,77.61
2023-02-19T09:28:12.118Z,77.64
2023-02-19T09:30:38.620Z,77.40
2023-02-19T09:33:06.049Z,77.36
2023-02-19T09:35:32.594Z,77.19
2023-02-19T09:38:01.863Z,77.55
2023-02-19T09:40:30.292Z,77.75
2023-02-19T09:42:57.028Z,77.53
2023-02-19T09:45:26.112Z,77.60
2023-02-19T09:47:57.916Z,77.10
2023-02-19T09:50:41.099Z,77.16
2023-02-19T09:53:25.252Z,77.46
2023-02-19T09:55:52.970Z,77.41
2023-02-19T09:58:45.662Z,77.39
2023-02-19T10:01:13.449Z,77.45
2023-02-19T10:03:43.638Z,77.40
2023-02-19T10:06:20.416Z,77.36
2023-02-19T10:08:49.037Z,77.20
2023-02-19T10:11:16.107Z,77.30
2023-02-19T10:14:00.929Z,77.05
2023-02-19T10:16:28.985Z,77.40
2023-02-19T10:18:56.592Z,77.07
2023-02-19T10:21:27.964Z,77.09
2023-02-19T10:24:00.361Z,77.26
2023-02-19T10:26:27.494Z,77.04
2023-02-19T10:28:55.422Z,77.00
2023-02-19T10:31:25.274Z,76.79
2023-02-19T10:33:57.926Z,76.91
2023-02-19T10:36:30.621Z,76.90
2023-02-19T10:39:00.769Z,76.82
2023-02-19T10:41:28.725Z,76.44
2023-02-19T10:43:58.227Z,76.74
2023-02-19T10:46:28.289Z,76.56
2023-02-19T10:49:06.556Z,75.83
2023-02-19T10:51:36.993Z,75.99
2023-02-19T10:54:05.375Z,75.57
2023-02-19T10:56:33.624Z,75.23
2023-02-19T10:59:21.116Z,74.64
2023-02-19T11:02:18.267Z,74.38
2023-02-19T11:05:05.608Z,74.29
2023-02-19T11:07:32.888Z,74.49
2023-02-19T11:10:00.143Z,74.25
2023-02-19T11:12:31.858Z,74.03
2023-02-19T11:15:11.597Z,73.97
2023-02-19T11:17:38.802Z,73.39
2023-02-19T11:20:14.887Z,73.09
2023-02-19T11:22:49.124Z,73.15
2023-02-19T11:25:16.323Z,73.39
2023-02-19T11:28:04.081Z,72.82
2023-02-19T11:30:32.325Z,72.98
2023-02-19T11:33:20.992Z,72.63
2023-02-19T11:36:08.922Z,72.57
2023-02-19T11:38:35.506Z,72.68
2023-02-19T11:41:36.656Z,72.32
2023-02-19T11:44:30.051Z,72.04
2023-02-19T11:47:23.073Z,72.57
2023-02-19T11:50:28.524Z,71.73
2023-02-19T11:53:29.486Z,72.23
2023-02-19T11:56:14.141Z,71.36
2023-02-19T11:59:05.289Z,71.21
2023-02-19T12:01:44.180Z,70.33
2023-02-19T12:04:37.743Z,70.46
2023-02-19T12:07:15.923Z,69.96
2023-02-19T12:10:25.179Z,69.30
2023-02-19T12:13:10.126Z,69.27
2023-02-19T12:16:09.772Z,69.08
2023-02-19T12:19:08.233Z,68.79
2023-02-19T12:22:14.960Z,68.73
2023-02-19T12:25:29.423Z,68.78
2023-02-19T12:28:10.102Z,69.27
2023-02-19T12:31:13.928Z,68.40
2023-02-19T12:33:46.508Z,68.96
2023-02-19T12:36:26.529Z,68.64
2023-02-19T12:39:11.200Z,69.17
2023-02-19T12:41:50.016Z,68.76
2023-02-19T12:44:34.665Z,68.79
2023-02-19T12:47:06.456Z,68.94
2023-02-19T12:49:40.896Z,69.02
2023-02-19T12:52:16.581Z,68.91
2023-02-19T12:54:47.770Z,69.03
2023-02-19T12:57:20.789Z,68.78
2023-02-19T13:00:07.747Z,68.25
2023-02-19T13:02:44.222Z,67.83
2023-02-19T13:05:42.106Z,67.33
2023-02-19T13:09:07.352Z,67.58
2023-02-19T13:11:58.299Z,68.03
2023-02-19T13:14:30.684Z,67.77
2023-02-19T13:17:21.245Z,67.77
2023-02-19T13:19:52.440Z,67.71
2023-02-19T13:22:56.033Z,67.33
2023-02-19T13:25:28.083Z,67.56
2023-02-19T13:28:08.378Z,67.15
2023-02-19T13:31:03.530Z,67.18
2023-02-19T13:33:42.218Z,67.19
2023-02-19T13:36:12.557Z,67.12
2023-02-19T13:38:44.126Z,66.58
2023-02-19T13:41:19.846Z,66.37
2023-02-19T13:43:54.084Z,66.62
2023-02-19T13:46:20.725Z,66.38
2023-02-19T13:48:47.196Z,66.42
2023-02-19T13:51:21.560Z,66.39
2023-02-19T13:53:48.157Z,66.39
2023-02-19T13:56:30.065Z,66.28
2023-02-19T13:58:57.927Z,66.81
2023-02-19T14:01:58.780Z,66.02
2023-02-19T14:04:40.887Z,66.16
2023-02-19T14:07:07.358Z,66.66
2023-02-19T14:09:45.891Z,66.39
2023-02-19T14:12:16.271Z,66.54
2023-02-19T14:14:46.742Z,66.77
2023-02-19T14:17:38.267Z,66.27
2023-02-19T14:20:17.046Z,66.16
2023-02-19T14:22:47.720Z,66.59
2023-02-19T14:25:38.225Z,66.05
2023-02-19T14:28:10.635Z,66.31
2023-02-19T14:31:00.883Z,66.55
2023-02-19T14:33:34.071Z,66.38
2023-02-19T14:36:13.963Z,66.32
2023-02-19T14:39:11.919Z,66.24
2023-02-19T14:41:41.501Z,66.60
2023-02-19T14:44:34.055Z,66.47
2023-02-19T14:47:05.875Z,66.56
2023-02-19T14:49:47.944Z,66.15
2023-02-19T14:52:36.669Z,66.58
2023-02-19T14:55:13.507Z,66.11
2023-02-19T14:57:43.040Z,66.22
2023-02-19T15:00:22.065Z,66.32
2023-02-19T15:02:55.604Z,66.28
2023-02-19T15:05:26.323Z,66.51
2023-02-19T15:07:55.409Z,66.37
2023-02-19T15:10:22.518Z,66.65
2023-02-19T15:12:56.047Z,66.39
2023-02-19T15:15:36.384Z,66.54
2023-02-19T15:18:04.925Z,66.71
2023-02-19T15:20:36.909Z,66.82
2023-02-19T15:23:06.565Z,66.59
2023-02-19T15:25:35.773Z,66.58
2023-02-19T15:28:24.340Z,66.35
2023-02-19T15:30:56.828Z,66.83
2023-02-19T15:33:23.423Z,67.12
2023-02-19T15:35:56.124Z,66.84
2023-02-19T15:38:22.833Z,67.14
2023-02-19T15:40:49.818Z,67.35
2023-02-19T15:43:27.612Z,67.33
2023-02-19T15:45:59.185Z,67.41
2023-02-19T15:48:39.718Z,67.22
2023-02-19T15:51:14.294Z,67.40
2023-02-19T15:53:47.853Z,67.38
2023-02-19T15:56:28.058Z,67.38
2023-02-19T15:59:01.024Z,67.56
2023-02-19T16:01:30.266Z,67.68
2023-02-19T16:03:58.425Z,67.80
2023-02-19T16:06:26.400Z,68.00
2023-02-19T16:08:52.800Z,68.12
2023-02-19T16:11:22.302Z,68.00
2023-02-19T16:13:50.593Z,68.00
2023-02-19T16:16:29.798Z,68.21
2023-02-19T16:18:57.027Z,68.10
2023-02-19T16:21:26.894Z,68.28
2023-02-19T16:24:11.754Z,68.33
2023-02-19T16:26:43.161Z,68.15
2023-02-19T16:29:25.396Z,68.19
2023-02-19T16:31:55.520Z,68.18
2023-02-19T16:34:41.525Z,68.22
2023-02-19T16:37:30.014Z,68.34
2023-02-19T16:40:34.748Z,68.63
2023-02-19T16:43:03.937Z,68.77
2023-02-19T16:45:30.760Z,68.91
2023-02-19T16:47:57.611Z,68.77
2023-02-19T16:50:26.771Z,68.68
2023-02-19T16:52:59.470Z,68.84
2023-02-19T16:55:27.251Z,69.10
2023-02-19T16:57:54.349Z,68.87
2023-02-19T17:00:31.858Z,69.09
2023-02-19T17:03:02.430Z,69.13
2023-02-19T17:05:32.254Z,68.97
2023-02-19T17:07:58.729Z,68.93
2023-02-19T17:10:27.555Z,69.16
2023-02-19T17:12:55.156Z,69.19
2023-02-19T17:15:22.634Z,68.93
2023-02-19T17:17:49.223Z,69.24
2023-02-19T17:20:15.603Z,69.27
2023-02-19T17:22:42.401Z,69.04
2023-02-19T17:25:09.184Z,69.29
2023-02-19T17:27:35.926Z,69.13
2023-02-19T17:30:02.859Z,69.16
2023-02-19T17:32:31.992Z,69.03
2023-02-19T17:34:58.736Z,69.13
2023-02-19T17:37:25.139Z,69.19
2023-02-19T17:39:51.901Z,69.28
2023-02-19T17:42:18.790Z,69.28
2023-02-19T17:44:46.660Z,69.56
2023-02-19T17:47:13.281Z,69.67
2023-02-19T17:49:39.743Z,69.64
2023-02-19T17:52:06.621Z,69.61
2023-02-19T17:54:34.217Z,69.57
2023-02-19T17:57:00.687Z,69.49
2023-02-19T17:59:27.152Z,69.70
2023-02-19T18:01:53.651Z,69.76
2023-02-19T18:04:20.624Z,69.68
2023-02-19T18:06:48.080Z,69.91
2023-02-19T18:09:17.966Z,69.98
2023-02-19T18:11:46.278Z,69.98
2023-02-19T18:14:12.729Z,69.63
2023-02-19T18:16:50.035Z,69.93
2023-02-19T18:19:17.117Z,70.29
2023-02-19T18:21:43.563Z,70.08
2023-02-19T18:24:09.980Z,70.15
2023-02-19T18:26:36.470Z,70.38
2023-02-19T18:29:02.977Z,70.35
2023-02-19T18:31:32.739Z,70.60
2023-02-19T18:33:59.457Z,70.47
2023-02-19T18:36:25.956Z,70.33
2023-02-19T18:38:52.374Z,70.41
2023-02-19T18:41:21.067Z,70.38
2023-02-19T18:43:48.945Z,70.81
2023-02-19T18:46:15.950Z,70.75
2023-02-19T18:48:42.827Z,70.79
2023-02-19T18:51:10.923Z,70.87
2023-02-19T18:53:37.671Z,70.79
2023-02-19T18:56:05.328Z,70.60
2023-02-19T18:58:31.899Z,70.71
2023-02-19T19:00:59.427Z,70.62
2023-02-19T19:03:26.001Z,70.98
2023-02-19T19:05:52.657Z,70.79
2023-02-19T19:08:19.057Z,70.87
2023-02-19T19:10:45.506Z,70.58
2023-02-19T19:13:11.989Z,70.84
2023-02-19T19:15:41.261Z,71.05
2023-02-19T19:18:08.965Z,70.87
2023-02-19T19:20:35.500Z,71.14
2023-02-19T19:23:02.367Z,70.94
2023-02-19T19:25:28.781Z,70.94
2023-02-19T19:27:55.836Z,71.18
2023-02-19T19:30:22.476Z,71.18
2023-02-19T19:32:50.269Z,71.05
2023-02-19T19:35:18.005Z,71.10
2023-02-19T19:37:45.015Z,70.95
2023-02-19T19:40:11.959Z,71.26
2023-02-19T19:42:39.126Z,71.02
2023-02-19T19:45:06.113Z,71.30
2023-02-19T19:47:32.599Z,71.40
2023-02-19T19:49:59.062Z,71.18
2023-02-19T19:52:25.705Z,71.27
2023-02-19T19:54:54.061Z,71.55
2023-02-19T19:57:20.841Z,71.21
2023-02-19T19:59:51.246Z,70.98
2023-02-19T20:02:18.239Z,71.09
2023-02-19T20:04:44.792Z,71.12
2023-02-19T20:07:11.255Z,71.28
2023-02-19T20:09:37.709Z,71.02
2023-02-19T20:12:04.937Z,71.19
2023-02-19T20:14:31.459Z,71.11
2023-02-19T20:16:58.307Z,71.06
2023-02-19T20:19:24.905Z,71.22
2023-02-19T20:21:53.340Z,70.83
2023-02-19T20:24:28.416Z,71.03
2023-02-19T20:26:58.602Z,71.20
2023-02-19T20:29:30.424Z,70.83
2023-02-19T20:32:02.388Z,71.16
2023-02-19T20:34:29.799Z,71.06
2023-02-19T20:36:56.240Z,71.07
2023-02-19T20:39:22.839Z,71.07
2023-02-19T20:41:51.929Z,71.04
2023-02-19T20:44:19.792Z,70.94
2023-02-19T20:46:49.284Z,70.84
2023-02-19T20:49:18.149Z,71.02
2023-02-19T20:51:54.722Z,70.96
2023-02-19T20:54:23.718Z,70.92
2023-02-19T20:56:52.969Z,70.99
2023-02-19T20:59:21.761Z,71.05
2023-02-19T21:01:49.116Z,71.08
2023-02-19T21:04:17.579Z,71.31
2023-02-19T21:06:44.060Z,71.01
2023-02-19T21:09:10.656Z,71.17
2023-02-19T21:11:37.159Z,71.28
2023-02-19T21:14:03.628Z,71.33
2023-02-19T21:16:31.906Z,71.22
2023-02-19T21:18:58.968Z,71.38
2023-02-19T21:21:26.247Z,71.46
2023-02-19T21:23:57.479Z,71.31
2023-02-19T21:26:25.234Z,71.35
2023-02-19T21:28:52.465Z,71.18
2023-02-19T21:31:23.886Z,71.62
2023-02-19T21:33:51.752Z,71.44
2023-02-19T21:36:18.638Z,71.42
2023-02-19T21:38:45.074Z,71.53
2023-02-19T21:41:11.505Z,71.51
2023-02-19T21:43:37.914Z,71.83
2023-02-19T21:46:04.563Z,71.73
2023-02-19T21:48:30.988Z,71.68
2023-02-19T21:50:57.436Z,71.70
2023-02-19T21:53:23.891Z,71.79
2023-02-19T21:55:58.217Z,71.77
2023-02-19T21:58:25.905Z,71.68
2023-02-19T22:00:53.878Z,71.59
2023-02-19T22:03:20.470Z,71.77
2023-02-19T22:05:46.891Z,71.50
2023-02-19T22:08:15.517Z,71.77
2023-02-19T22:10:42.473Z,72.09
2023-02-19T22:13:09.722Z,71.97
2023-02-19T22:15:36.870Z,71.84
2023-02-19T22:18:03.635Z,72.14
2023-02-19T22:20:30.079Z,71.91
2023-02-19T22:22:56.497Z,71.98
2023-02-19T22:25:22.945Z,72.13
2023-02-19T22:27:49.423Z,72.19
2023-02-19T22:30:16.154Z,72.06
2023-02-19T22:32:42.775Z,72.14
2023-02-19T22:35:09.234Z,71.67
2023-02-19T22:37:35.658Z,72.22
2023-02-19T22:40:02.090Z,72.04
2023-02-19T22:42:29.336Z,71.96
2023-02-19T22:44:55.924Z,72.23
2023-02-19T22:47:22.415Z,72.04
2023-02-19T22:49:48.971Z,71.97
2023-02-19T22:52:15.515Z,72.04
2023-02-19T22:54:41.987Z,72.09
2023-02-19T22:57:08.404Z,72.31
2023-02-19T22:59:34.932Z,72.08
2023-02-19T23:02:01.732Z,72.27
2023-02-19T23:04:28.204Z,72.05
2023-02-19T23:06:54.943Z,72.10
2023-02-19T23:09:24.678Z,72.19
2023-02-19T23:11:52.100Z,72.45
2023-02-19T23:14:21.448Z,72.40
2023-02-19T23:16:47.958Z,72.17
2023-02-19T23:19:15.633Z,72.24
2023-02-19T23:21:44.073Z,72.51
2023-02-19T23:24:11.655Z,72.19
2023-02-19T23:26:43.331Z,72.07
2023-02-19T23:29:09.763Z,72.09
2023-02-19T23:31:36.253Z,72.35
2023-02-19T23:34:02.735Z,72.27
2023-02-19T23:36:29.456Z,72.23
2023-02-19T23:38:55.973Z,72.34
2023-02-19T23:41:22.453Z,72.49
2023-02-19T23:43:49.269Z,72.36
2023-02-19T23:46:17.772Z,72.32
2023-02-19T23:48:45.559Z,72.24
2023-02-19T23:51:12.078Z,72.18
2023-02-19T23:53:38.565Z,72.42
2023-02-19T23:56:05.662Z,72.32
2023-02-19T23:58:32.141Z,72.35
